Impacts TAF Board
For situational awareness. Not to be used for flight planning purposes.
IDs:

KCLE - Cleveland/Hopkins In, OH, US

Issued at 1140 UTC 10 Aug 2022
Updated at 1408 UTC 10 Aug 2022
Potential Impact None Slight Moderate High
Time1351Z 10/15Z 10/16Z 10/17Z 10/18Z 10/19Z 10/20Z 10/21Z 10/22Z 10/23Z 11/00Z 11/01Z 11/02Z 11/03Z>>
Type OBS PRVL PRVL PRVL PRVL PRVL PRVL PRVL PRVL PRVL PRVL PRVL PRVL PRVL
VIS 10 >6 >6 >6 >6 >6 >6 >6 >6 >6 >6 >6 >6 >6
CIG 48 -- -- -- -- -- -- -- -- -- -- -- -- --
Cover BKN SCT SCT SCT SCT SCT SCT SCT SCT SCT SCT SCT SCT SCT
FltCat VFR VFR VFR VFR VFR VFR VFR VFR VFR VFR VFR VFR VFR VFR
WX -- -- -- -- -- -- -- -- -- -- -- -- -- --
WDir 30 360 360 360 360 360 360 360 360 360 360 360 360 360
WSpd 7 6 6 6 6 6 6 6 6 6 6 6 6 6
WGst -- -- -- -- -- -- -- -- -- -- -- -- -- --
WSHgt -- -- -- -- -- -- -- -- -- -- -- -- -- --
WSDir -- -- -- -- -- -- -- -- -- -- -- -- -- --
WSSpd -- -- -- -- -- -- -- -- -- -- -- -- -- --
Raw TAF
KCLE 101140Z 1012/1118 VRB03KT P6SM SCT030 BKN250
  FM101400 36006KT P6SM SCT250
  FM111500 34010KT P6SM SCT035


Raw METAR
KCLE 101351Z 03007KT 10SM BKN048 BKN180 BKN250 23/15 A3014 RMK AO2 SLP219 T02280150
KCLE 101251Z 00000KT 10SM BKN050 BKN180 BKN250 22/17 A3014 RMK AO2 SLP219 T02170167
KCLE 101151Z 00000KT 10SM BKN055 BKN180 BKN250 20/16 A3014 RMK AO2 SLP217 70001 T02000161 10200 20172 51015

METAR Board
Radar Display
Forecast Discussion
For situational awareness. Not to be used for flight planning purposes.